Time;durP1;ratioP1;P1;durP2;ratioP2;P2;SDS_P1;SDS_P2;PMS_P1;PMS_P2;Temp;Humidity;BMP_temperature;BMP_pressure;BME280_temperature;BME280_humidity;BME280_pressure;Samples;Min_cycle;Max_cycle;Signal;HPM_P1;HPM_P2
2022/10/17 00:01:13;;;;;;;5.22;4.72;;;14.60;99.90;;;-141.84;94.38;18298.00;5110834;28;20223;-68
2022/10/17 00:03:42;;;;;;;5.60;4.80;;;14.60;99.90;;;-141.84;94.54;18316.28;5110774;28;20223;-65
2022/10/17 00:06:12;;;;;;;5.40;4.90;;;14.50;99.90;;;-141.84;94.76;18310.19;5110722;28;20223;-66
2022/10/17 00:08:42;;;;;;;5.78;5.28;;;14.60;99.90;;;-141.84;94.88;18302.06;5110611;28;20223;-64
2022/10/17 00:11:16;;;;;;;5.55;5.05;;;14.60;99.90;;;-141.84;94.80;18330.50;5111188;28;20207;-66
2022/10/17 00:13:45;;;;;;;5.65;5.15;;;14.60;99.90;;;-141.84;94.85;18324.41;5110852;28;20227;-67
2022/10/17 00:16:14;;;;;;;6.03;5.50;;;14.60;99.90;;;-141.84;94.99;18300.03;5110760;28;20234;-65
2022/10/17 00:18:42;;;;;;;5.05;4.65;;;14.60;99.90;;;-141.84;94.93;18302.06;5110505;28;20227;-64
2022/10/17 00:21:16;;;;;;;5.30;4.80;;;14.60;99.90;;;-141.84;94.97;18318.31;5110530;28;20230;-64
2022/10/17 00:23:45;;;;;;;5.85;5.25;;;14.70;99.90;;;-141.84;95.04;18320.34;5110216;28;20729;-65
2022/10/17 00:26:13;;;;;;;5.43;4.85;;;14.70;99.90;;;-141.84;95.18;18314.25;5111168;28;20207;-64
2022/10/17 00:28:41;;;;;;;6.65;4.85;;;14.70;99.90;;;-141.84;95.08;18300.03;5110794;28;20521;-64
2022/10/17 00:31:10;;;;;;;5.72;4.88;;;14.70;99.90;;;-141.84;94.87;18277.69;5110818;28;20251;-66
2022/10/17 00:33:39;;;;;;;6.03;5.45;;;14.70;99.90;;;-141.84;94.88;18346.75;5110720;28;20223;-65
2022/10/17 00:36:11;;;;;;;5.53;5.03;;;14.70;99.90;;;-141.84;94.74;18318.31;5110803;28;20242;-65
2022/10/17 00:38:40;;;;;;;5.55;5.05;;;14.70;99.90;;;-141.84;94.35;18334.56;5110499;28;20432;-64
2022/10/17 00:41:11;;;;;;;5.55;4.97;;;14.80;99.90;;;-141.84;93.99;18328.47;5111376;28;20203;-67
2022/10/17 00:44:00;;;;;;;5.40;4.90;;;14.90;99.90;;;-141.84;93.76;18279.72;5110601;28;20224;-67
2022/10/17 00:46:31;;;;;;;5.18;4.70;;;14.90;99.90;;;-141.84;93.50;18289.88;5110942;28;20246;-65
2022/10/17 00:49:06;;;;;;;4.97;4.57;;;14.90;99.90;;;-141.84;93.25;18334.56;5112767;28;20629;-65
2022/10/17 00:51:43;;;;;;;5.30;4.80;;;14.90;99.90;;;-141.84;92.76;18314.25;5114469;28;20219;-65
2022/10/17 00:54:14;;;;;;;5.20;4.70;;;15.00;99.90;;;-141.84;92.44;18306.13;5113874;28;20309;-66
2022/10/17 00:56:43;;;;;;;5.80;4.60;;;15.00;99.90;;;-141.84;92.08;18336.59;5114380;27;20219;-66
2022/10/17 00:59:15;;;;;;;5.22;4.72;;;15.00;99.90;;;-141.84;91.60;18291.91;5114857;28;20202;-65
2022/10/17 01:01:53;;;;;;;5.50;4.95;;;15.00;99.90;;;-141.84;91.12;18308.16;5114227;27;20505;-64
2022/10/17 01:04:23;;;;;;;4.80;4.40;;;15.00;99.90;;;-141.84;91.04;18324.41;5113668;28;20717;-65
2022/10/17 01:06:51;;;;;;;5.40;4.63;;;15.00;99.90;;;-141.84;91.30;18277.69;5113916;28;20235;-66
2022/10/17 01:09:19;;;;;;;5.18;4.68;;;15.00;99.90;;;-141.84;91.40;18308.16;5113563;27;20733;-64
2022/10/17 01:11:57;;;;;;;6.65;4.65;;;14.90;99.90;;;-141.84;91.10;18273.63;5113977;28;20223;-65
2022/10/17 01:14:37;;;;;;;5.13;4.10;;;15.00;99.90;;;-141.84;91.09;18265.50;5113851;28;20183;-65
2022/10/17 01:17:17;;;;;;;4.40;4.10;;;15.00;99.90;;;-141.84;90.97;18275.66;5114506;28;20183;-65
2022/10/17 01:20:22;;;;;;;6.88;4.97;;;15.00;99.90;;;-141.84;90.48;18271.59;5113871;28;20276;-63
2022/10/17 01:23:02;;;;;;;4.88;4.47;;;15.00;99.90;;;-141.84;90.67;18295.97;5113988;28;20610;-65
2022/10/17 01:25:52;;;;;;;4.75;4.35;;;14.90;99.90;;;-141.84;90.54;18265.50;5113441;28;20218;-64
2022/10/17 01:28:56;;;;;;;4.95;4.03;;;14.90;99.90;;;-141.84;90.93;18271.59;5113571;28;20617;-65
2022/10/17 01:31:36;;;;;;;4.80;4.40;;;14.80;99.90;;;-141.84;91.35;18253.31;5113347;28;20328;-66
2022/10/17 01:34:15;;;;;;;5.70;4.03;;;14.70;99.90;;;-141.84;91.79;18275.66;5113443;28;20626;-66
2022/10/17 01:36:52;;;;;;;5.18;4.20;;;14.70;99.90;;;-141.84;92.08;18230.94;5113216;28;20227;-65
2022/10/17 01:39:34;;;;;;;5.15;4.75;;;14.60;99.90;;;-141.84;92.35;18232.97;5113430;28;20215;-64
2022/10/17 01:42:16;;;;;;;4.47;4.10;;;14.60;99.90;;;-141.84;92.67;18230.94;5113608;28;20223;-65
2022/10/17 01:44:54;;;;;;;4.68;4.28;;;14.60;99.90;;;-141.84;93.10;18214.69;5113268;27;20710;-65
2022/10/17 01:47:30;;;;;;;5.13;4.68;;;14.50;99.90;;;-141.84;93.25;18226.88;5113682;28;20179;-66
2022/10/17 01:50:04;;;;;;;5.55;5.05;;;14.50;99.90;;;-141.84;93.32;18220.78;5113597;28;20203;-65
2022/10/17 01:52:39;;;;;;;5.50;5.00;;;14.50;99.90;;;-141.84;93.39;18204.53;5113034;27;20287;-65
2022/10/17 01:55:14;;;;;;;5.20;4.80;;;14.50;99.90;;;-141.84;92.92;18257.38;5112930;28;20605;-65
2022/10/17 01:57:49;;;;;;;4.85;4.35;;;14.60;99.90;;;-141.84;91.96;18218.75;5113216;28;20221;-66
2022/10/17 02:00:22;;;;;;;5.10;4.35;;;14.60;99.90;;;-141.84;91.73;18232.97;5112395;28;20222;-64
2022/10/17 02:02:58;;;;;;;4.70;4.30;;;14.60;99.90;;;-141.84;91.83;18255.34;5113092;27;20599;-65
2022/10/17 02:05:33;;;;;;;5.18;4.78;;;14.60;99.90;;;-141.84;91.27;18241.13;5112773;28;20634;-65
2022/10/17 02:08:01;;;;;;;4.75;4.35;;;14.70;99.90;;;-141.84;91.23;18206.56;5113614;28;20187;-65
2022/10/17 02:10:38;;;;;;;4.68;4.28;;;14.60;99.90;;;-141.84;91.16;18226.88;5112262;28;20231;-66
2022/10/17 02:13:19;;;;;;;5.00;4.60;;;14.60;99.90;;;-141.84;91.42;18235.00;5112671;28;20223;-66
2022/10/17 02:16:19;;;;;;;5.30;4.80;;;14.50;99.90;;;-141.84;91.58;18180.16;5112628;28;20271;-64
2022/10/17 02:19:18;;;;;;;5.82;5.25;;;14.50;99.90;;;-141.84;91.98;18220.78;5112795;28;20257;-65
2022/10/17 02:22:01;;;;;;;4.85;4.45;;;14.40;99.90;;;-141.84;92.24;18188.28;5112258;28;20766;-64
2022/10/17 02:24:42;;;;;;;5.03;4.53;;;14.40;99.90;;;-141.84;92.83;18208.59;5112380;27;20227;-67
2022/10/17 02:27:16;;;;;;;7.20;6.70;;;14.30;99.90;;;-141.84;93.06;18149.69;5112545;28;20227;-65
2022/10/17 02:29:50;;;;;;;5.20;4.70;;;14.30;99.90;;;-141.84;93.42;18182.19;5112627;28;20226;-67
2022/10/17 02:32:28;;;;;;;5.78;5.18;;;14.30;99.90;;;-141.84;93.55;18184.22;5113239;28;20198;-64
2022/10/17 02:35:01;;;;;;;5.03;4.63;;;14.40;99.90;;;-141.84;93.67;18186.25;5112923;28;20229;-65
2022/10/17 02:37:32;;;;;;;8.15;5.00;;;14.40;99.90;;;-141.84;93.85;18208.59;5112375;28;20223;-65
2022/10/17 02:40:03;;;;;;;4.38;4.00;;;14.40;99.90;;;-141.84;93.75;18214.69;5111983;28;20710;-65
2022/10/17 02:42:32;;;;;;;4.55;4.15;;;14.50;99.90;;;-141.84;93.94;18232.97;5112341;28;20568;-65
2022/10/17 02:45:03;;;;;;;4.93;4.53;;;14.50;99.90;;;-141.84;93.90;18194.38;5112218;27;20611;-65
2022/10/17 02:47:39;;;;;;;4.97;4.40;;;14.50;99.90;;;-141.84;93.70;18192.34;5112288;28;20195;-66
2022/10/17 02:50:09;;;;;;;5.78;3.95;;;14.60;99.90;;;-141.84;93.06;18200.47;5112557;28;20210;-66
2022/10/17 02:52:47;;;;;;;4.82;3.92;;;14.70;99.90;;;-141.84;92.96;18218.75;5112109;28;20280;-65
2022/10/17 02:55:20;;;;;;;6.32;3.88;;;14.70;99.90;;;-141.84;92.73;18232.97;5111744;28;20223;-66
2022/10/17 02:57:54;;;;;;;4.40;4.03;;;14.80;99.90;;;-141.84;92.24;18196.41;5112118;28;20304;-66
2022/10/17 03:00:24;;;;;;;4.55;4.15;;;14.70;99.90;;;-141.84;92.13;18267.53;5112181;28;20227;-67
2022/10/17 03:02:54;;;;;;;4.80;4.35;;;14.80;99.90;;;-141.84;91.12;18232.97;5111942;28;20227;-66
2022/10/17 03:05:28;;;;;;;4.18;3.70;;;14.80;99.90;;;-141.84;90.59;18228.91;5111677;27;20248;-67
2022/10/17 03:07:57;;;;;;;4.78;4.05;;;14.90;99.90;;;-141.84;89.94;18241.13;5112864;28;20191;-65
2022/10/17 03:10:25;;;;;;;4.10;3.70;;;15.00;99.90;;;-141.84;89.53;18259.41;5111474;28;20275;-65
2022/10/17 03:12:53;;;;;;;5.15;3.70;;;15.00;99.90;;;-141.84;88.65;18275.66;5111382;28;20219;-65
2022/10/17 03:15:21;;;;;;;4.18;3.78;;;15.10;99.90;;;-141.84;88.08;18263.47;5111983;28;20227;-65
2022/10/17 03:17:49;;;;;;;3.83;3.53;;;15.10;99.90;;;-141.84;86.94;18328.47;5111808;28;20227;-65
2022/10/17 03:20:17;;;;;;;3.75;3.40;;;15.20;99.90;;;-141.84;86.53;18289.88;5112567;28;20195;-65
2022/10/17 03:22:46;;;;;;;3.67;3.35;;;15.20;99.90;;;-141.84;85.77;18360.97;5111756;28;20215;-65
2022/10/17 03:25:15;;;;;;;4.90;3.90;;;15.20;99.90;;;-141.84;85.17;18314.25;5111206;28;20231;-65
2022/10/17 03:27:43;;;;;;;4.60;4.18;;;15.20;99.90;;;-141.84;85.11;18340.66;5111591;28;20292;-64
2022/10/17 03:30:11;;;;;;;8.88;3.92;;;15.30;99.90;;;-141.84;84.28;18336.59;5111417;28;20226;-65
2022/10/17 03:32:39;;;;;;;4.63;3.92;;;15.30;99.90;;;-141.84;83.24;18393.47;5111569;28;20307;-67
2022/10/17 03:35:08;;;;;;;8.15;3.80;;;15.40;99.90;;;-141.84;82.87;18338.63;5112188;28;20195;-67
2022/10/17 03:37:42;;;;;;;3.75;3.45;;;15.40;99.90;;;-141.84;82.65;18401.59;5111811;28;20226;-65
2022/10/17 03:40:11;;;;;;;4.88;3.92;;;15.40;99.90;;;-141.84;83.19;18363.00;5111374;28;20710;-66
2022/10/17 03:42:40;;;;;;;4.13;3.40;;;15.40;99.90;;;-141.84;83.79;18360.97;5111262;28;20474;-64
2022/10/17 03:45:09;;;;;;;3.72;3.42;;;15.40;99.90;;;-141.84;84.33;18338.63;5111256;28;20219;-65
2022/10/17 03:47:37;;;;;;;4.07;3.60;;;15.30;99.90;;;-141.84;84.69;18363.00;5111319;28;20206;-65
2022/10/17 03:50:06;;;;;;;4.03;3.72;;;15.30;99.90;;;-141.84;83.64;18397.53;5111306;28;20620;-64
2022/10/17 03:52:34;;;;;;;3.97;3.65;;;15.30;99.90;;;-141.84;84.21;18365.03;5111103;28;20231;-66
2022/10/17 03:55:03;;;;;;;4.00;3.65;;;15.30;99.90;;;-141.84;83.01;18373.16;5111054;28;20756;-65
2022/10/17 03:57:34;;;;;;;3.60;3.30;;;15.30;99.90;;;-141.84;82.88;18393.47;5111041;28;20227;-65
2022/10/17 04:00:04;;;;;;;4.00;3.60;;;15.30;99.90;;;-141.84;83.18;18369.09;5111167;28;20881;-65
2022/10/17 04:02:33;;;;;;;4.93;3.60;;;15.30;99.90;;;-141.84;83.40;18373.16;5111456;28;20211;-65
2022/10/17 04:05:01;;;;;;;5.22;3.60;;;15.30;99.90;;;-141.84;83.54;18354.88;5111655;28;20227;-65
2022/10/17 04:07:29;;;;;;;4.05;3.35;;;15.20;99.90;;;-141.84;83.82;18350.81;5111093;28;20383;-66
2022/10/17 04:09:57;;;;;;;3.92;3.50;;;15.20;99.90;;;-141.84;84.09;18336.59;5110871;28;20227;-65
2022/10/17 04:12:25;;;;;;;3.90;3.53;;;15.20;99.90;;;-141.84;84.50;18352.84;5111043;28;20276;-65
2022/10/17 04:14:56;;;;;;;5.88;3.80;;;15.20;99.90;;;-141.84;84.58;18377.22;5111066;28;20661;-66
2022/10/17 04:17:24;;;;;;;4.22;3.78;;;15.10;99.90;;;-141.84;82.65;18393.47;5111062;28;20222;-65
2022/10/17 04:19:52;;;;;;;3.95;3.65;;;15.20;99.90;;;-141.84;82.40;18379.25;5111279;28;20248;-65
2022/10/17 04:22:20;;;;;;;5.63;4.47;;;15.30;99.90;;;-141.84;81.68;18417.84;5111490;28;20877;-66
2022/10/17 04:24:48;;;;;;;4.22;3.78;;;15.30;99.90;;;-141.84;81.09;18452.41;5114535;28;20284;-65
2022/10/17 04:27:16;;;;;;;4.53;3.70;;;15.30;99.90;;;-141.84;81.28;18421.91;5114804;27;20230;-65
2022/10/17 04:29:44;;;;;;;3.80;3.50;;;15.40;99.90;;;-141.84;81.08;18440.22;5115176;28;20276;-64
2022/10/17 04:32:14;;;;;;;5.40;3.85;;;15.30;99.90;;;-141.84;80.09;18456.47;5115473;28;20304;-64
2022/10/17 04:34:42;;;;;;;4.82;3.60;;;15.50;99.90;;;-141.84;79.91;18472.72;5114591;27;20643;-65
2022/10/17 04:37:10;;;;;;;5.35;3.42;;;15.50;99.90;;;-141.84;80.61;18403.63;5114915;28;20577;-65
2022/10/17 04:39:38;;;;;;;7.22;3.20;;;15.40;99.90;;;-141.84;80.77;18450.38;5114710;28;20223;-65
2022/10/17 04:42:06;;;;;;;6.47;3.58;;;15.40;99.90;;;-141.84;81.05;18452.41;5115138;28;20226;-64
2022/10/17 04:44:34;;;;;;;4.40;3.97;;;15.30;99.90;;;-141.84;81.33;18421.91;5115158;27;20271;-66
2022/10/17 04:47:02;;;;;;;5.35;3.60;;;15.30;99.90;;;-141.84;81.97;18403.63;5115273;28;20731;-65
2022/10/17 04:49:31;;;;;;;4.03;3.60;;;15.20;99.90;;;-141.84;81.04;18407.69;5114672;28;20223;-65
2022/10/17 04:52:00;;;;;;;4.65;3.58;;;15.30;99.90;;;-141.84;81.05;18446.31;5114421;28;20228;-66
2022/10/17 04:54:28;;;;;;;4.00;3.60;;;15.30;99.90;;;-141.84;81.08;18417.84;5114079;28;20223;-65
2022/10/17 04:56:56;;;;;;;4.13;3.83;;;15.30;99.90;;;-141.84;81.10;18430.06;5114820;28;20789;-66
2022/10/17 04:59:24;;;;;;;4.93;3.67;;;15.30;99.90;;;-141.84;80.73;18464.59;5114382;28;20203;-66
2022/10/17 05:01:52;;;;;;;4.47;4.03;;;15.20;99.90;;;-141.84;80.22;18464.59;5114846;28;20298;-65
2022/10/17 05:04:20;;;;;;;3.80;3.45;;;15.30;99.90;;;-141.84;80.14;18476.78;5114263;28;20709;-65
2022/10/17 05:06:53;;;;;;;4.75;3.80;;;15.30;99.90;;;-141.84;80.78;18430.06;5114393;28;20248;-65
2022/10/17 05:09:21;;;;;;;5.13;3.63;;;15.30;99.90;;;-141.84;80.94;18446.31;5113829;28;20223;-65
2022/10/17 05:11:49;;;;;;;4.97;3.50;;;15.20;99.90;;;-141.84;80.84;18440.22;5114322;28;20235;-67
2022/10/17 05:14:17;;;;;;;3.78;3.47;;;15.30;99.90;;;-141.84;81.19;18419.88;5114789;28;20252;-66
2022/10/17 05:16:45;;;;;;;6.53;3.55;;;15.20;99.90;;;-141.84;81.58;18419.88;5114473;28;20215;-65
2022/10/17 05:19:13;;;;;;;4.38;3.40;;;15.10;99.90;;;-141.84;82.22;18403.63;5113745;28;20265;-65
2022/10/17 05:21:41;;;;;;;4.05;3.33;;;15.10;99.90;;;-141.84;81.01;18436.16;5113990;28;20222;-65
2022/10/17 05:24:14;;;;;;;3.63;3.13;;;15.10;99.90;;;-141.84;79.95;18486.94;5113709;28;20223;-66
2022/10/17 05:26:42;;;;;;;4.13;3.72;;;15.20;99.90;;;-141.84;80.64;18438.19;5114206;28;20223;-65
2022/10/17 05:29:10;;;;;;;3.38;3.08;;;15.10;99.90;;;-141.84;81.87;18393.47;5114133;28;20202;-65
2022/10/17 05:31:38;;;;;;;4.15;3.30;;;15.00;99.90;;;-141.84;82.99;18363.00;5113301;28;20234;-65
2022/10/17 05:34:06;;;;;;;8.02;3.72;;;14.90;99.90;;;-141.84;82.59;18367.06;5112680;28;20615;-64
2022/10/17 05:36:38;;;;;;;4.95;3.58;;;14.90;99.90;;;-141.84;82.83;18363.00;5113274;28;20231;-65
2022/10/17 05:39:07;;;;;;;4.10;3.63;;;14.80;99.90;;;-141.84;83.20;18314.25;5113343;28;20223;-65
2022/10/17 05:41:36;;;;;;;3.90;3.60;;;14.80;99.90;;;-141.84;83.83;18354.88;5113551;27;20199;-65
2022/10/17 05:44:05;;;;;;;4.05;3.47;;;14.70;99.90;;;-141.84;83.90;18318.31;5113851;28;20600;-65
2022/10/17 05:46:33;;;;;;;6.35;4.15;;;14.70;99.90;;;-141.84;84.03;18326.44;5113222;28;20641;-65
2022/10/17 05:49:01;;;;;;;4.00;3.60;;;14.70;99.90;;;-141.84;83.98;18316.28;5113472;28;20231;-64
2022/10/17 05:51:46;;;;;;;4.65;3.58;;;14.60;99.90;;;-141.84;83.77;18308.16;5113292;28;20329;-66
2022/10/17 05:54:14;;;;;;;5.47;3.70;;;14.70;99.90;;;-141.84;82.82;18348.78;5112864;28;20230;-65
2022/10/17 05:56:43;;;;;;;4.47;3.63;;;14.70;99.90;;;-141.84;82.60;18354.88;5113217;28;20698;-65
2022/10/17 05:59:11;;;;;;;5.10;3.40;;;14.80;99.90;;;-141.84;83.04;18356.91;5113552;28;20199;-65
2022/10/17 06:01:39;;;;;;;3.60;3.28;;;14.80;99.90;;;-141.84;82.34;18344.72;5113188;28;20245;-65
2022/10/17 06:04:07;;;;;;;3.75;3.40;;;14.80;99.90;;;-141.84;82.23;18350.81;5112818;28;20573;-64
2022/10/17 06:06:37;;;;;;;3.90;3.50;;;14.80;99.90;;;-141.84;80.60;18407.69;5112626;28;20220;-65
2022/10/17 06:09:06;;;;;;;3.88;3.20;;;14.90;99.90;;;-141.84;80.87;18395.50;5112985;28;20215;-65
2022/10/17 06:11:35;;;;;;;4.97;3.78;;;15.00;99.90;;;-141.84;80.64;18428.03;5112578;28;20726;-66
2022/10/17 06:14:05;;;;;;;3.88;3.30;;;15.00;99.90;;;-141.84;79.64;18423.94;5113264;28;20214;-65
2022/10/17 06:16:33;;;;;;;5.07;3.58;;;15.30;99.90;;;-141.84;79.49;18417.84;5112464;28;20603;-65
2022/10/17 06:19:01;;;;;;;4.00;3.05;;;15.20;99.90;;;-141.84;78.28;18497.09;5112452;28;20242;-64
2022/10/17 06:21:33;;;;;;;5.63;3.22;;;15.30;99.90;;;-141.84;77.83;18505.22;5112312;28;20227;-64
2022/10/17 06:24:01;;;;;;;4.53;3.10;;;15.40;99.90;;;-141.84;76.79;18588.53;5112117;28;20276;-65
2022/10/17 06:26:29;;;;;;;4.82;3.05;;;15.50;99.90;;;-141.84;77.10;18547.88;5112314;28;20244;-66
2022/10/17 06:28:57;;;;;;;4.93;3.10;;;15.60;99.90;;;-141.84;76.67;18586.50;5113238;28;20244;-66
2022/10/17 06:31:26;;;;;;;4.43;2.95;;;15.70;99.90;;;-141.84;76.23;18600.72;5112134;28;20227;-68
2022/10/17 06:33:54;;;;;;;5.65;3.10;;;15.80;99.90;;;-141.84;75.94;18631.19;5112151;28;20280;-67
2022/10/17 06:36:22;;;;;;;3.50;3.00;;;15.90;99.90;;;-141.84;74.57;18704.31;5112184;28;20223;-67
2022/10/17 06:38:50;;;;;;;4.72;2.95;;;16.00;99.90;;;-141.84;74.54;18690.09;5112326;28;20220;-66
2022/10/17 06:41:19;;;;;;;4.05;3.17;;;16.10;99.90;;;-141.84;73.43;18773.41;5112557;28;20580;-66
2022/10/17 06:43:47;;;;;;;5.85;3.13;;;16.20;99.90;;;-141.84;72.35;18826.25;5112381;28;20215;-67
2022/10/17 06:46:17;;;;;;;5.60;2.83;;;16.30;99.90;;;-141.84;71.85;18891.25;5111404;28;20227;-65
2022/10/17 06:48:47;;;;;;;3.05;2.75;;;16.40;99.90;;;-141.84;72.18;18881.09;5112129;28;20227;-65
2022/10/17 06:51:15;;;;;;;3.70;2.78;;;16.60;99.90;;;-141.84;72.46;18893.28;5112239;28;20231;-65
2022/10/17 06:53:42;;;;;;;3.92;2.92;;;16.50;99.90;;;-141.84;71.69;18899.38;5111754;28;20272;-66
2022/10/17 06:56:11;;;;;;;3.50;2.78;;;16.50;99.90;;;-141.84;72.18;18870.94;5112540;28;20199;-64
2022/10/17 06:58:40;;;;;;;2.90;2.70;;;16.50;99.90;;;-141.84;71.78;18923.78;5111683;28;20227;-65
2022/10/17 07:01:10;;;;;;;4.18;2.55;;;16.60;99.90;;;-141.84;71.71;18933.94;5111947;28;20226;-66
2022/10/17 07:03:40;;;;;;;2.70;2.50;;;16.60;99.90;;;-141.84;71.71;18950.19;5111702;28;20227;-67
2022/10/17 07:06:10;;;;;;;4.35;2.53;;;16.70;99.90;;;-141.84;71.08;18990.81;5111268;28;20219;-66
2022/10/17 07:08:42;;;;;;;3.13;2.83;;;16.70;99.90;;;-141.84;70.92;19017.25;5111525;28;20635;-68
2022/10/17 07:11:12;;;;;;;4.95;2.58;;;16.80;99.90;;;-141.84;70.34;19082.25;5111987;28;20561;-65
2022/10/17 07:13:40;;;;;;;3.15;2.40;;;16.90;99.90;;;-141.84;70.04;19098.50;5111754;28;20223;-66
2022/10/17 07:16:09;;;;;;;3.00;2.70;;;17.00;99.90;;;-141.84;68.72;19147.28;5111433;28;20718;-65
2022/10/17 07:18:37;;;;;;;8.40;3.13;;;17.10;99.90;;;-141.84;67.86;19230.59;5111399;28;20219;-65
2022/10/17 07:21:07;;;;;;;3.92;2.40;;;17.20;99.90;;;-141.84;67.70;19295.63;5111382;28;20216;-66
2022/10/17 07:23:38;;;;;;;4.32;2.75;;;17.40;99.90;;;-141.84;67.78;19273.28;5111531;28;20219;-66
2022/10/17 07:26:11;;;;;;;2.60;2.40;;;17.50;99.90;;;-141.84;67.02;19366.75;5111516;28;20211;-65
2022/10/17 07:28:43;;;;;;;3.72;2.60;;;17.60;99.90;;;-141.84;67.17;19395.19;5111627;28;20644;-66
2022/10/17 07:31:16;;;;;;;4.28;2.67;;;17.60;99.90;;;-141.84;66.73;19448.03;5111171;27;20231;-66
2022/10/17 07:33:45;;;;;;;6.78;2.70;;;17.80;99.90;;;-141.84;66.59;19458.19;5111584;28;20231;-65
2022/10/17 07:36:19;;;;;;;4.47;2.67;;;17.80;99.90;;;-141.84;66.53;19513.06;5111228;28;20223;-66
2022/10/17 07:38:48;;;;;;;3.85;2.90;;;17.90;99.90;;;-141.84;65.82;19576.06;5111006;28;20223;-65
2022/10/17 07:41:18;;;;;;;5.65;2.92;;;17.90;99.90;;;-141.84;65.77;19594.34;5111764;28;20206;-67
2022/10/17 07:43:50;;;;;;;3.75;2.20;;;17.90;99.90;;;-141.84;65.77;19604.50;5111567;28;20293;-66
2022/10/17 07:46:18;;;;;;;3.22;2.25;;;17.90;99.90;;;-141.84;65.41;19681.75;5110812;28;20227;-66
2022/10/17 07:48:45;;;;;;;2.33;2.13;;;18.00;99.90;;;-141.84;65.27;19702.06;5111275;28;20246;-65
2022/10/17 07:51:14;;;;;;;3.42;2.30;;;18.10;99.90;;;-141.84;64.90;19748.81;5110981;28;20223;-65
2022/10/17 07:53:43;;;;;;;3.47;2.25;;;18.20;99.90;;;-141.84;65.26;19726.44;5110777;28;20231;-64
2022/10/17 07:56:17;;;;;;;3.03;1.85;;;18.10;99.90;;;-141.84;65.51;19630.94;5111778;28;20271;-65
2022/10/17 07:58:47;;;;;;;3.70;2.42;;;18.10;99.90;;;-141.84;66.00;19624.84;5114943;28;20219;-65
2022/10/17 08:01:15;;;;;;;5.75;2.83;;;18.10;99.90;;;-141.84;65.33;19724.41;5115303;28;20231;-66
2022/10/17 08:03:44;;;;;;;4.43;2.50;;;18.00;99.90;;;-141.84;64.93;19712.22;5114999;28;20766;-67
2022/10/17 08:06:13;;;;;;;3.25;2.67;;;18.10;99.90;;;-141.84;66.07;19626.88;5115214;28;20227;-66
2022/10/17 08:08:41;;;;;;;3.20;2.10;;;18.00;99.90;;;-141.84;66.65;19630.94;5115054;28;20227;-68
2022/10/17 08:11:14;;;;;;;4.88;2.60;;;18.00;99.90;;;-141.84;67.29;19506.97;5116012;28;20221;-65
2022/10/17 08:13:43;;;;;;;7.80;2.40;;;17.80;99.90;;;-141.84;66.67;19557.78;5114899;28;20230;-66
2022/10/17 08:16:13;;;;;;;5.40;2.55;;;17.80;99.90;;;-141.84;66.24;19549.63;5115110;28;20218;-65
2022/10/17 08:18:42;;;;;;;2.72;2.42;;;17.80;99.90;;;-141.84;66.93;19515.09;5114659;27;20223;-66
2022/10/17 08:21:13;;;;;;;2.47;2.25;;;17.70;99.90;;;-141.84;67.08;19494.78;5114859;28;20218;-65
2022/10/17 08:23:41;;;;;;;3.25;2.67;;;17.70;99.90;;;-141.84;67.28;19482.56;5114994;27;20231;-65
2022/10/17 08:26:12;;;;;;;4.63;2.58;;;17.60;99.90;;;-141.84;66.79;19529.31;5115096;28;20736;-66
2022/10/17 08:28:41;;;;;;;3.28;2.50;;;17.70;99.90;;;-141.84;65.62;19667.50;5114490;28;20223;-65
2022/10/17 08:31:13;;;;;;;2.97;2.63;;;17.90;99.90;;;-141.84;65.62;19704.09;5114898;28;20253;-66
2022/10/17 08:33:42;;;;;;;4.03;2.38;;;18.10;99.90;;;-141.84;64.43;19781.31;5114782;27;20602;-65
2022/10/17 08:36:14;;;;;;;2.58;2.33;;;18.30;99.90;;;-141.84;63.12;19937.81;5114405;28;20219;-66
2022/10/17 08:38:43;;;;;;;3.10;2.78;;;18.50;99.90;;;-141.84;63.19;19962.19;5114338;28;20219;-66
2022/10/17 08:41:29;;;;;;;2.63;2.17;;;18.70;99.90;;;-141.84;62.76;20021.16;5115598;28;20202;-66
2022/10/17 08:44:09;;;;;;;4.93;2.60;;;18.70;99.90;;;-141.84;62.52;20047.56;5114755;28;20212;-67
2022/10/17 08:46:44;;;;;;;2.67;2.40;;;18.80;99.90;;;-141.84;62.28;20092.28;5114478;28;20227;-65
2022/10/17 08:49:23;;;;;;;2.50;2.28;;;18.80;99.90;;;-141.84;61.21;20183.75;5114214;28;20222;-66
2022/10/17 08:51:59;;;;;;;3.35;2.22;;;19.00;99.90;;;-141.84;61.31;20265.03;5114420;28;20235;-64
2022/10/17 08:54:40;;;;;;;4.93;2.70;;;19.10;99.90;;;-141.84;61.61;20283.34;5113807;28;20292;-65
2022/10/17 08:57:13;;;;;;;6.10;2.38;;;19.10;99.90;;;-141.84;61.17;20319.94;5114147;28;20223;-67
2022/10/17 08:59:41;;;;;;;2.97;2.20;;;19.20;99.90;;;-141.84;60.56;20352.44;5114279;28;20227;-65
2022/10/17 09:02:38;;;;;;;4.97;2.20;;;19.30;99.90;;;-141.84;60.57;20382.94;5114514;28;20562;-64
2022/10/17 09:05:36;;;;;;;2.90;2.33;;;19.50;99.90;;;-141.84;59.73;20484.56;5107251;28;20739;-66
2022/10/17 09:08:22;;;;;;;3.10;2.50;;;19.60;99.90;;;-141.84;60.62;20468.31;5114319;28;20203;-67
2022/10/17 09:10:58;;;;;;;3.60;2.22;;;19.50;99.90;;;-141.84;59.48;20539.47;5113292;28;20663;-66
2022/10/17 09:13:43;;;;;;;5.45;2.65;;;19.60;99.90;;;-141.84;60.34;20460.19;5113621;28;20283;-66
2022/10/17 09:16:37;;;;;;;3.05;2.28;;;19.60;99.90;;;-141.84;60.07;20529.28;5113809;28;20231;-65
2022/10/17 09:19:17;;;;;;;18.92;4.30;;;19.60;99.90;;;-141.84;60.16;20551.66;5113570;28;20265;-65
2022/10/17 09:21:52;;;;;;;5.25;2.67;;;19.70;99.90;;;-141.84;59.04;20606.53;5113825;28;20223;-66
2022/10/17 09:24:38;;;;;;;7.15;2.40;;;19.80;99.90;;;-141.84;59.30;20632.97;5113445;28;20268;-65
2022/10/17 09:27:22;;;;;;;2.40;2.20;;;19.80;99.90;;;-141.84;59.48;20584.19;5113871;28;20279;-64
2022/10/17 09:30:02;;;;;;;2.92;2.20;;;19.80;99.90;;;-141.84;58.64;20649.22;5113730;28;20219;-67
2022/10/17 09:32:31;;;;;;;2.70;2.50;;;20.00;99.90;;;-141.84;58.49;20702.09;5113788;28;20237;-65
2022/10/17 09:35:01;;;;;;;4.05;2.47;;;20.10;99.90;;;-141.84;57.71;20803.72;5113853;28;20223;-61
2022/10/17 09:37:32;;;;;;;3.80;2.40;;;20.30;99.90;;;-141.84;57.96;20805.75;5113519;28;20378;-61
2022/10/17 09:40:00;;;;;;;2.08;1.88;;;20.40;99.90;;;-141.84;56.45;20891.13;5113344;28;20223;-62
2022/10/17 09:42:29;;;;;;;4.97;2.50;;;20.60;99.90;;;-141.84;56.67;20950.09;5113367;28;20235;-60
2022/10/17 09:45:17;;;;;;;3.53;2.35;;;20.80;99.90;;;-141.84;55.51;20988.72;5113493;28;20239;-61
2022/10/17 09:47:55;;;;;;;2.72;2.00;;;21.00;99.90;;;-141.84;55.35;21045.63;5113496;28;20219;-61
2022/10/17 09:50:32;;;;;;;4.63;2.05;;;21.10;99.90;;;-141.84;54.53;21129.00;5113395;28;20187;-62
2022/10/17 09:53:10;;;;;;;4.60;2.25;;;21.30;99.90;;;-141.84;54.05;21169.66;5113694;28;20191;-59
2022/10/17 09:55:42;;;;;;;4.50;2.20;;;21.50;99.90;;;-141.84;53.84;21234.72;5111530;28;20604;-61
2022/10/17 09:58:12;;;;;;;6.05;2.30;;;21.70;99.90;;;-141.84;53.00;21275.38;5112751;28;20219;-61
2022/10/17 10:00:44;;;;;;;3.67;2.20;;;21.80;99.90;;;-141.84;53.56;21293.69;5112869;28;20219;-61
2022/10/17 10:03:18;;;;;;;2.10;1.90;;;21.80;99.90;;;-141.84;52.99;21293.69;5113028;28;20265;-62
2022/10/17 10:06:02;;;;;;;3.30;2.10;;;21.90;99.90;;;-141.84;53.46;21311.97;5113061;28;20299;-62
2022/10/17 10:08:34;;;;;;;7.70;2.88;;;22.00;99.90;;;-141.84;53.56;21326.22;5112640;28;20561;-61
2022/10/17 10:11:06;;;;;;;5.03;2.33;;;22.10;99.90;;;-141.84;53.27;21391.28;5113084;28;20184;-62
2022/10/17 10:13:40;;;;;;;4.50;2.25;;;22.20;99.90;;;-141.84;53.15;21423.81;5112386;28;20766;-61
2022/10/17 10:16:29;;;;;;;4.50;2.15;;;22.40;99.90;;;-141.84;52.74;21433.97;5112524;28;20726;-62
2022/10/17 10:18:58;;;;;;;4.85;2.30;;;22.50;99.90;;;-141.84;52.35;21474.63;5112118;28;20306;-61
2022/10/17 10:21:28;;;;;;;2.80;2.42;;;22.50;99.90;;;-141.84;52.13;21458.38;5112748;28;20227;-63
2022/10/17 10:24:13;;;;;;;6.25;2.40;;;22.60;99.90;;;-141.84;52.03;21525.47;5112416;28;20219;-60
2022/10/17 10:26:45;;;;;;;2.78;1.90;;;22.70;99.90;;;-141.84;51.43;21564.09;5112514;28;20240;-61